Terminal Aerodrome Forecast
Issued by NWS Louisville, KY

Home | Current Version | Previous Version | Text Only | Print | Product List | Glossary On
Versions: 1 2 3 4 5 6 7 8 9 10 11 12 13 14 15 16 17 18 19 20
542
FTUS43 KLMK 020530
TAFLEX
TAF
KLEX 020530Z 0206/0306 22007KT P6SM FEW040
     FM020900 29010KT P6SM FEW020 BKN050
     FM021000 26007KT P6SM SCT040 SCT150
     FM021500 25007KT P6SM BKN035 BKN080
     FM022200 32005KT P6SM SCT070 SCT200=

USA.gov is the U.S. government's official web portal to all federal, state and local government web resources and services.